Time;durP1;ratioP1;P1;durP2;ratioP2;P2;SDS_P1;SDS_P2;PMS_P1;PMS_P2;Temp;Humidity;BMP_temperature;BMP_pressure;BME280_temperature;BME280_humidity;BME280_pressure;Samples;Min_cycle;Max_cycle;Signal;HPM_P1;HPM_P2
2022/04/10 00:01:02;;;;;;;;;;;1.20;99.90;;;;;;5065835;28;19918;-82
2022/04/10 00:03:27;;;;;;;;;;;1.10;99.90;;;;;;5061126;28;19967;-82
2022/04/10 00:05:53;;;;;;;;;;;1.10;99.90;;;;;;5053956;28;19912;-82
2022/04/10 00:08:18;;;;;;;;;;;1.10;99.90;;;;;;5061161;28;20381;-82
2022/04/10 00:10:44;;;;;;;;;;;1.10;99.90;;;;;;5049481;28;20007;-82
2022/04/10 00:13:10;;;;;;;;;;;1.10;99.90;;;;;;5061541;28;19917;-82
2022/04/10 00:15:35;;;;;;;;;;;1.10;99.90;;;;;;5061703;28;20238;-82
2022/04/10 00:18:01;;;;;;;;;;;1.00;99.90;;;;;;5060725;28;20034;-82
2022/04/10 00:20:26;;;;;;;;;;;1.10;99.90;;;;;;5028216;28;19974;-81
2022/04/10 00:22:52;;;;;;;;;;;1.00;99.90;;;;;;5038952;28;19973;-82
2022/04/10 00:25:18;;;;;;;;;;;1.00;99.90;;;;;;5048469;28;19921;-81
2022/04/10 00:27:43;;;;;;;;;;;0.90;99.90;;;;;;5065923;28;19912;-82
2022/04/10 00:30:10;;;;;;;;;;;0.90;99.90;;;;;;5051850;28;19982;-82
2022/04/10 00:32:35;;;;;;;;;;;0.90;99.90;;;;;;5050026;28;20371;-81
2022/04/10 00:35:01;;;;;;;;;;;0.90;99.90;;;;;;5064561;28;19920;-82
2022/04/10 00:37:27;;;;;;;;;;;0.90;99.90;;;;;;5058819;28;19927;-82
2022/04/10 00:39:53;;;;;;;;;;;0.90;99.90;;;;;;5057985;28;20369;-82
2022/04/10 00:42:19;;;;;;;;;;;0.90;99.90;;;;;;5052313;28;19917;-82
2022/04/10 00:44:44;;;;;;;;;;;0.80;99.90;;;;;;5046731;28;19929;-83
2022/04/10 00:47:10;;;;;;;;;;;0.80;99.90;;;;;;5054315;28;19967;-82
2022/04/10 00:49:36;;;;;;;;;;;0.80;99.90;;;;;;5049101;28;19928;-81
2022/04/10 00:52:02;;;;;;;;;;;0.80;99.90;;;;;;5062128;28;19958;-82
2022/04/10 00:54:30;;;;;;;;;;;0.80;99.90;;;;;;5054776;28;19920;-82
2022/04/10 00:56:56;;;;;;;;;;;0.70;99.90;;;;;;5037195;28;19947;-82
2022/04/10 00:59:22;;;;;;;;;;;0.70;99.90;;;;;;5048999;28;20354;-82
2022/04/10 01:01:47;;;;;;;;;;;0.70;99.90;;;;;;5050982;28;20019;-82
2022/04/10 01:04:13;;;;;;;;;;;0.70;99.90;;;;;;5055921;28;20000;-81
2022/04/10 01:06:39;;;;;;;;;;;0.60;99.90;;;;;;5059545;28;19952;-82
2022/04/10 01:09:06;;;;;;;;;;;0.60;99.90;;;;;;5055906;28;19913;-82
2022/04/10 01:11:32;;;;;;;;;;;0.60;99.90;;;;;;5045920;28;19916;-82
2022/04/10 01:13:58;;;;;;;;;;;0.50;99.90;;;;;;5058099;28;19995;-82
2022/04/10 01:16:24;;;;;;;;;;;0.50;99.90;;;;;;5055657;28;20350;-82
2022/04/10 01:18:50;;;;;;;;;;;0.50;99.90;;;;;;5058916;28;20003;-81
2022/04/10 01:21:22;;;;;;;;;;;0.50;99.90;;;;;;5055291;28;20351;-82
2022/04/10 01:23:47;;;;;;;;;;;0.50;99.90;;;;;;5064538;28;20382;-82
2022/04/10 01:26:13;;;;;;;;;;;0.40;99.90;;;;;;5036144;28;20008;-82
2022/04/10 01:28:54;;;;;;;;;;;0.40;99.90;;;;;;5059544;28;19968;-82
2022/04/10 01:31:20;;;;;;;;;;;0.40;99.90;;;;;;5060425;28;19916;-82
2022/04/10 01:33:45;;;;;;;;;;;0.30;99.90;;;;;;5029314;28;19927;-82
2022/04/10 01:36:11;;;;;;;;;;;0.30;99.90;;;;;;5050887;28;19932;-81
2022/04/10 01:38:36;;;;;;;;;;;0.30;99.90;;;;;;5046922;28;20364;-82
2022/04/10 01:41:02;;;;;;;;;;;0.20;99.90;;;;;;5078961;22;19984;-83
2022/04/10 01:43:27;;;;;;;;;;;0.20;99.90;;;;;;5037193;28;19932;-83
2022/04/10 01:45:53;;;;;;;;;;;0.20;99.90;;;;;;5045842;28;19920;-83
2022/04/10 01:48:18;;;;;;;;;;;0.20;99.90;;;;;;5045947;28;19924;-83
2022/04/10 01:50:44;;;;;;;;;;;0.10;99.90;;;;;;5047614;28;19923;-83
2022/04/10 01:53:09;;;;;;;;;;;0.10;99.90;;;;;;5053302;28;19936;-83
2022/04/10 01:55:35;;;;;;;;;;;0.10;99.90;;;;;;5066982;28;19927;-83
2022/04/10 01:58:00;;;;;;;;;;;0.10;99.90;;;;;;5039543;28;20376;-83
2022/04/10 02:00:26;;;;;;;;;;;0.00;99.90;;;;;;5070567;28;19979;-83
2022/04/10 02:02:51;;;;;;;;;;;0.10;99.90;;;;;;5023380;28;19922;-83
2022/04/10 02:05:17;;;;;;;;;;;0.00;99.90;;;;;;5052238;28;20396;-83
2022/04/10 02:07:42;;;;;;;;;;;0.00;99.90;;;;;;5066115;28;19912;-83
2022/04/10 02:10:08;;;;;;;;;;;0.00;99.90;;;;;;5042575;28;19917;-83
2022/04/10 02:12:34;;;;;;;;;;;-0.10;99.90;;;;;;5053478;28;19996;-83
2022/04/10 02:15:00;;;;;;;;;;;-0.10;99.90;;;;;;5042125;28;19984;-83
2022/04/10 02:17:25;;;;;;;;;;;-0.10;99.90;;;;;;5041751;28;19913;-83
2022/04/10 02:19:51;;;;;;;;;;;-0.20;99.90;;;;;;5045822;28;19917;-82
2022/04/10 02:22:16;;;;;;;;;;;-0.20;99.90;;;;;;5029140;28;20062;-83
2022/04/10 02:24:42;;;;;;;;;;;-0.20;99.90;;;;;;5044585;28;19927;-82
2022/04/10 02:27:07;;;;;;;;;;;-0.20;99.90;;;;;;5028966;28;19952;-83
2022/04/10 02:29:33;;;;;;;;;;;-0.20;99.90;;;;;;5047342;28;19921;-83
2022/04/10 02:31:58;;;;;;;;;;;-0.10;99.90;;;;;;5043464;28;20303;-83
2022/04/10 02:34:24;;;;;;;;;;;-0.10;99.90;;;;;;5046376;28;19959;-82
2022/04/10 02:36:50;;;;;;;;;;;-0.20;99.90;;;;;;5047222;28;19917;-83
2022/04/10 02:39:15;;;;;;;;;;;-0.20;99.90;;;;;;5039024;28;19920;-83
2022/04/10 02:41:41;;;;;;;;;;;-0.20;99.90;;;;;;5068788;28;19928;-83
2022/04/10 02:44:06;;;;;;;;;;;-0.30;99.90;;;;;;5056491;28;19923;-83
2022/04/10 02:46:32;;;;;;;;;;;-0.30;99.90;;;;;;5043017;28;19924;-82
2022/04/10 02:48:57;;;;;;;;;;;-0.30;99.90;;;;;;5051965;28;19921;-83
2022/04/10 02:51:23;;;;;;;;;;;-0.30;99.90;;;;;;5039202;28;19945;-82
2022/04/10 02:53:48;;;;;;;;;;;-0.30;99.90;;;;;;5045416;28;19917;-82
2022/04/10 02:56:14;;;;;;;;;;;-0.30;99.90;;;;;;5045123;28;19939;-82
2022/04/10 02:58:39;;;;;;;;;;;-0.30;99.90;;;;;;5037614;28;19973;-83
2022/04/10 03:01:05;;;;;;;;;;;-0.30;99.90;;;;;;5047326;28;19917;-83
2022/04/10 03:03:30;;;;;;;;;;;-0.40;99.90;;;;;;5044818;28;19994;-83
2022/04/10 03:05:56;;;;;;;;;;;-0.40;99.90;;;;;;5045451;28;19917;-83
2022/04/10 03:08:22;;;;;;;;;;;-0.40;99.90;;;;;;5029564;28;19921;-83
2022/04/10 03:10:48;;;;;;;;;;;-0.40;99.90;;;;;;5051202;28;19981;-83
2022/04/10 03:13:15;;;;;;;;;;;-0.50;99.90;;;;;;5037120;28;19920;-83
2022/04/10 03:15:41;;;;;;;;;;;-0.50;99.90;;;;;;5047394;28;19954;-83
2022/04/10 03:18:07;;;;;;;;;;;-0.50;99.90;;;;;;5041755;28;19921;-83
2022/04/10 03:20:32;;;;;;;;;;;-0.50;99.90;;;;;;5068303;28;20049;-83
2022/04/10 03:22:58;;;;;;;;;;;-0.50;99.90;;;;;;5052985;28;19921;-83
2022/04/10 03:25:23;;;;;;;;;;;-0.60;99.90;;;;;;5067059;28;19917;-83
2022/04/10 03:27:49;;;;;;;;;;;-0.60;99.90;;;;;;5057033;28;19908;-83
2022/04/10 03:30:14;;;;;;;;;;;-0.60;99.90;;;;;;5035364;28;20434;-83
2022/04/10 03:32:41;;;;;;;;;;;-0.60;99.90;;;;;;5031377;28;19927;-83
2022/04/10 03:35:07;;;;;;;;;;;-0.60;99.90;;;;;;5047826;28;19961;-83
2022/04/10 03:37:32;;;;;;;;;;;-0.60;99.90;;;;;;5055262;28;20011;-82
2022/04/10 03:39:58;;;;;;;;;;;-0.60;99.90;;;;;;5049435;28;19919;-83
2022/04/10 03:42:23;;;;;;;;;;;-0.60;99.90;;;;;;5033867;28;20291;-83
2022/04/10 03:44:49;;;;;;;;;;;-0.60;99.90;;;;;;5041823;28;19923;-83
2022/04/10 03:47:14;;;;;;;;;;;-0.60;99.90;;;;;;5042806;28;19920;-83
2022/04/10 03:49:40;;;;;;;;;;;-0.60;99.90;;;;;;5042197;28;20150;-83
2022/04/10 03:52:06;;;;;;;;;;;-0.60;99.90;;;;;;5040499;28;19923;-83
2022/04/10 03:54:31;;;;;;;;;;;-0.50;99.90;;;;;;5062946;28;20367;-82
2022/04/10 03:56:57;;;;;;;;;;;-0.50;99.90;;;;;;5045075;28;20310;-83
2022/04/10 03:59:24;;;;;;;;;;;-0.40;99.90;;;;;;5055542;28;19999;-83
2022/04/10 04:01:50;;;;;;;;;;;-0.40;99.90;;;;;;5034594;28;19921;-83
2022/04/10 04:04:15;;;;;;;;;;;-0.40;99.90;;;;;;5043391;28;19931;-83
2022/04/10 04:06:41;;;;;;;;;;;-0.40;99.90;;;;;;5061934;28;20438;-83
2022/04/10 04:09:06;;;;;;;;;;;-0.40;99.90;;;;;;5033596;28;19916;-83
2022/04/10 04:11:32;;;;;;;;;;;-0.30;99.90;;;;;;5035440;28;19917;-83
2022/04/10 04:13:57;;;;;;;;;;;-0.30;99.90;;;;;;5046958;28;19990;-83
2022/04/10 04:16:23;;;;;;;;;;;-0.30;99.90;;;;;;5052959;28;19917;-83
2022/04/10 04:18:49;;;;;;;;;;;-0.30;99.90;;;;;;5040811;28;20342;-83
2022/04/10 04:21:17;;;;;;;;;;;-0.30;99.90;;;;;;5039778;28;20382;-83
2022/04/10 04:23:43;;;;;;;;;;;-0.30;99.90;;;;;;5061784;28;20039;-83
2022/04/10 04:26:10;;;;;;;;;;;-0.30;99.90;;;;;;5041311;28;20051;-83
2022/04/10 04:28:36;;;;;;;;;;;-0.20;99.90;;;;;;5041943;28;20027;-83
2022/04/10 04:31:02;;;;;;;;;;;-0.20;99.90;;;;;;5045017;28;19923;-83
2022/04/10 04:33:27;;;;;;;;;;;-0.20;99.90;;;;;;5070366;28;19921;-83
2022/04/10 04:35:53;;;;;;;;;;;-0.10;99.90;;;;;;5035124;28;20397;-83
2022/04/10 04:38:18;;;;;;;;;;;-0.20;99.90;;;;;;5041813;28;19917;-83
2022/04/10 04:40:44;;;;;;;;;;;-0.20;99.90;;;;;;5042663;28;19931;-83
2022/04/10 04:43:09;;;;;;;;;;;-0.20;99.90;;;;;;5034236;28;19935;-83
2022/04/10 04:45:35;;;;;;;;;;;-0.20;99.90;;;;;;5042837;28;19917;-83
2022/04/10 04:48:00;;;;;;;;;;;-0.20;99.90;;;;;;5042663;28;19924;-83
2022/04/10 04:50:26;;;;;;;;;;;-0.20;99.90;;;;;;5058887;28;19920;-83
2022/04/10 04:52:52;;;;;;;;;;;-0.10;99.90;;;;;;5064857;28;19963;-82
2022/04/10 04:55:18;;;;;;;;;;;-0.10;99.90;;;;;;5030364;28;19948;-83
2022/04/10 04:57:43;;;;;;;;;;;-0.10;99.90;;;;;;5050133;28;20324;-83
2022/04/10 05:00:09;;;;;;;;;;;0.00;99.90;;;;;;5030730;28;19916;-83
2022/04/10 05:02:35;;;;;;;;;;;0.00;99.90;;;;;;5049980;28;19921;-83
2022/04/10 05:05:01;;;;;;;;;;;0.10;99.90;;;;;;5033936;28;20383;-82
2022/04/10 05:07:26;;;;;;;;;;;0.20;99.90;;;;;;5046619;28;19974;-83
2022/04/10 05:09:52;;;;;;;;;;;0.30;99.90;;;;;;5043720;28;19917;-83
2022/04/10 05:12:17;;;;;;;;;;;0.30;99.90;;;;;;5042350;28;19923;-83
2022/04/10 05:14:43;;;;;;;;;;;0.40;99.90;;;;;;5067266;28;19967;-82
2022/04/10 05:17:08;;;;;;;;;;;0.40;99.90;;;;;;5040359;28;19963;-82
2022/04/10 05:19:34;;;;;;;;;;;0.50;99.90;;;;;;5033001;28;19917;-82
2022/04/10 05:21:59;;;;;;;;;;;0.50;99.90;;;;;;5044175;28;19924;-82
2022/04/10 05:24:25;;;;;;;;;;;0.50;99.90;;;;;;5039486;28;19994;-82
2022/04/10 05:26:50;;;;;;;;;;;0.60;99.90;;;;;;5056385;28;20340;-82
2022/04/10 05:29:16;;;;;;;;;;;0.60;99.90;;;;;;5044547;28;19969;-82
2022/04/10 05:31:41;;;;;;;;;;;0.70;99.90;;;;;;5053797;28;20015;-82
2022/04/10 05:34:07;;;;;;;;;;;0.70;99.90;;;;;;5048730;28;19924;-83
2022/04/10 05:36:32;;;;;;;;;;;0.80;99.90;;;;;;5065867;28;19913;-83
2022/04/10 05:38:58;;;;;;;;;;;0.80;99.90;;;;;;5064764;28;19919;-82
2022/04/10 05:41:24;;;;;;;;;;;0.90;99.90;;;;;;5061610;28;19923;-83
2022/04/10 05:43:49;;;;;;;;;;;0.90;99.90;;;;;;5063468;28;19927;-83
2022/04/10 05:46:15;;;;;;;;;;;1.00;99.90;;;;;;5063872;28;20575;-83
2022/04/10 05:48:40;;;;;;;;;;;1.00;99.90;;;;;;5029798;28;19967;-83
2022/04/10 05:51:06;;;;;;;;;;;1.10;99.90;;;;;;5070638;28;19928;-83
2022/04/10 05:53:32;;;;;;;;;;;1.10;99.90;;;;;;5039041;28;19921;-83
2022/04/10 05:55:57;;;;;;;;;;;1.20;99.90;;;;;;5053774;28;19926;-83
2022/04/10 05:58:23;;;;;;;;;;;1.20;99.90;;;;;;5038494;28;20015;-82
2022/04/10 06:00:49;;;;;;;;;;;1.30;99.90;;;;;;5050615;28;19917;-82
2022/04/10 06:03:14;;;;;;;;;;;1.40;99.90;;;;;;5042653;28;20442;-83
2022/04/10 06:05:40;;;;;;;;;;;1.40;99.90;;;;;;5050287;28;20322;-83
2022/04/10 06:08:06;;;;;;;;;;;1.50;99.90;;;;;;5060171;28;19913;-83
2022/04/10 06:10:31;;;;;;;;;;;1.50;99.90;;;;;;5054295;28;20011;-83
2022/04/10 06:13:05;;;;;;;;;;;1.60;99.90;;;;;;5036587;28;19917;-84
2022/04/10 06:15:31;;;;;;;;;;;1.70;99.90;;;;;;5059583;28;19936;-81
2022/04/10 06:17:59;;;;;;;;;;;1.70;99.90;;;;;;5059703;28;19923;-82
2022/04/10 06:20:26;;;;;;;;;;;1.80;99.90;;;;;;5072727;28;20007;-82
2022/04/10 06:22:52;;;;;;;;;;;1.80;99.90;;;;;;5064113;28;19920;-82
2022/04/10 06:25:17;;;;;;;;;;;1.90;99.90;;;;;;5066491;28;19983;-81
2022/04/10 06:27:43;;;;;;;;;;;1.90;99.90;;;;;;5056690;28;19980;-82
2022/04/10 06:30:09;;;;;;;;;;;2.00;99.90;;;;;;5064234;28;19959;-81
2022/04/10 06:32:34;;;;;;;;;;;2.10;99.90;;;;;;5048829;28;20008;-81
2022/04/10 06:35:00;;;;;;;;;;;2.20;99.90;;;;;;5033121;28;20286;-82
2022/04/10 06:37:25;;;;;;;;;;;2.30;99.90;;;;;;5057164;28;19920;-84
2022/04/10 06:39:51;;;;;;;;;;;2.40;99.90;;;;;;5038930;28;19923;-82
2022/04/10 06:42:16;;;;;;;;;;;2.50;99.90;;;;;;5044995;28;19928;-82
2022/04/10 06:44:42;;;;;;;;;;;2.50;99.90;;;;;;5041739;28;19917;-82
2022/04/10 06:47:09;;;;;;;;;;;2.60;99.90;;;;;;5043966;28;19916;-83
2022/04/10 06:49:39;;;;;;;;;;;2.60;99.90;;;;;;5037893;28;20384;-83
2022/04/10 06:52:07;;;;;;;;;;;2.70;99.90;;;;;;5053027;28;19924;-83
2022/04/10 06:54:32;;;;;;;;;;;2.80;99.90;;;;;;5066275;28;19913;-83
2022/04/10 06:56:58;;;;;;;;;;;2.80;99.90;;;;;;5060817;28;19912;-83
2022/04/10 06:59:23;;;;;;;;;;;2.90;99.90;;;;;;5044189;28;19917;-83
2022/04/10 07:01:49;;;;;;;;;;;3.00;99.90;;;;;;5055316;28;20002;-84
2022/04/10 07:04:14;;;;;;;;;;;3.10;99.90;;;;;;5050848;28;19970;-84
2022/04/10 07:06:40;;;;;;;;;;;3.20;99.90;;;;;;5045547;28;20019;-84
2022/04/10 07:09:06;;;;;;;;;;;3.40;99.90;;;;;;5059794;28;19958;-84
2022/04/10 07:11:33;;;;;;;;;;;3.40;99.90;;;;;;5041258;28;20303;-84
2022/04/10 07:13:59;;;;;;;;;;;3.50;99.90;;;;;;5070821;28;19916;-84
2022/04/10 07:16:25;;;;;;;;;;;3.70;99.90;;;;;;5051980;28;19924;-84
2022/04/10 07:18:50;;;;;;;;;;;3.80;99.90;;;;;;5061504;28;19923;-83
2022/04/10 07:23:41;;;;;;;;;;;3.90;99.90;;;;;;5040107;28;19916;-84
2022/04/10 07:24:01;;;;;;;;;;;4.00;99.90;;;;;;5058080;28;20016;-84
2022/04/10 07:26:27;;;;;;;;;;;4.10;99.90;;;;;;5041381;28;20011;-84
2022/04/10 07:28:53;;;;;;;;;;;4.20;99.90;;;;;;5042233;28;19917;-84
2022/04/10 07:31:18;;;;;;;;;;;4.30;99.90;;;;;;5059749;28;19920;-81
2022/04/10 07:33:44;;;;;;;;;;;4.40;99.90;;;;;;5043311;28;19913;-83
2022/04/10 07:36:09;;;;;;;;;;;4.40;99.90;;;;;;5049646;28;19912;-83
2022/04/10 07:38:35;;;;;;;;;;;4.60;99.90;;;;;;5039018;28;19978;-83
2022/04/10 07:43:28;;;;;;;;;;;5.10;99.90;;;;;;5054982;28;19924;-84
2022/04/10 07:48:38;;;;;;;;;;;5.50;99.90;;;;;;5065722;28;20016;-84
2022/04/10 07:51:04;;;;;;;;;;;5.70;99.90;;;;;;5070460;28;19990;-85
2022/04/10 07:53:30;;;;;;;;;;;6.00;99.90;;;;;;5047412;28;20445;-84
2022/04/10 07:55:56;;;;;;;;;;;6.20;99.90;;;;;;5046613;28;19980;-83
2022/04/10 07:58:22;;;;;;;;;;;6.30;99.90;;;;;;5049419;28;19916;-83
2022/04/10 08:00:48;;;;;;;;;;;6.50;99.90;;;;;;5053434;28;19927;-84
2022/04/10 08:03:13;;;;;;;;;;;6.60;99.90;;;;;;5056778;28;19925;-84
2022/04/10 08:05:39;;;;;;;;;;;6.80;99.90;;;;;;5057768;28;19912;-82
2022/04/10 08:08:05;;;;;;;;;;;6.80;99.90;;;;;;5061873;28;19917;-84
2022/04/10 08:10:30;;;;;;;;;;;6.90;99.90;;;;;;5054229;28;19913;-82
2022/04/10 08:12:58;;;;;;;;;;;7.00;99.90;;;;;;5063434;28;19960;-82
2022/04/10 08:15:24;;;;;;;;;;;7.10;99.90;;;;;;5064379;28;20371;-82
2022/04/10 08:17:50;;;;;;;;;;;7.10;99.90;;;;;;5060644;28;19912;-83
2022/04/10 08:20:16;;;;;;;;;;;7.20;99.90;;;;;;5047399;28;20379;-82
2022/04/10 08:22:41;;;;;;;;;;;7.40;99.90;;;;;;5067683;28;19923;-82
2022/04/10 08:25:08;;;;;;;;;;;7.60;99.90;;;;;;5069736;28;19908;-82
2022/04/10 08:27:35;;;;;;;;;;;7.50;96.90;;;;;;5067495;28;19915;-82
2022/04/10 08:30:02;;;;;;;;;;;7.40;97.10;;;;;;5064029;28;20421;-82
2022/04/10 08:32:34;;;;;;;;;;;7.20;98.90;;;;;;5059339;28;19982;-82
2022/04/10 08:35:00;;;;;;;;;;;7.20;99.90;;;;;;5058224;28;20012;-83
2022/04/10 08:37:25;;;;;;;;;;;7.20;99.90;;;;;;5063752;28;20007;-82
2022/04/10 08:39:51;;;;;;;;;;;7.20;99.90;;;;;;5050756;28;20069;-82
2022/04/10 08:42:16;;;;;;;;;;;7.20;99.90;;;;;;5043834;28;20336;-82
2022/04/10 08:44:41;;;;;;;;;;;7.20;99.90;;;;;;5068201;28;19928;-80
2022/04/10 08:47:07;;;;;;;;;;;7.30;99.90;;;;;;5045133;28;19916;-83
2022/04/10 08:49:34;;;;;;;;;;;7.40;99.90;;;;;;5051514;28;20310;-82
2022/04/10 08:51:59;;;;;;;;;;;7.50;99.90;;;;;;5061691;28;19923;-83
2022/04/10 08:54:25;;;;;;;;;;;7.60;99.90;;;;;;5049267;28;19920;-84
2022/04/10 08:56:51;;;;;;;;;;;7.70;99.70;;;;;;5047015;28;19952;-83
2022/04/10 08:59:17;;;;;;;;;;;7.70;97.60;;;;;;5061663;28;20009;-83
2022/04/10 09:01:43;;;;;;;;;;;7.70;99.00;;;;;;5066900;28;19955;-83
2022/04/10 09:04:08;;;;;;;;;;;7.90;99.50;;;;;;5052014;28;20343;-83
2022/04/10 09:06:38;;;;;;;;;;;8.10;97.00;;;;;;5061849;28;19913;-82
2022/04/10 09:09:14;;;;;;;;;;;8.20;95.50;;;;;;5068631;28;19919;-83
2022/04/10 09:11:42;;;;;;;;;;;8.30;94.60;;;;;;5049339;28;20414;-82
2022/04/10 09:14:07;;;;;;;;;;;8.50;95.30;;;;;;5042750;28;19926;-83
2022/04/10 09:16:33;;;;;;;;;;;8.80;93.30;;;;;;5053517;28;20342;-82
2022/04/10 09:19:00;;;;;;;;;;;9.00;93.30;;;;;;5052537;28;20582;-83
2022/04/10 09:21:28;;;;;;;;;;;9.10;92.10;;;;;;5067200;28;19916;-83
2022/04/10 09:23:57;;;;;;;;;;;9.20;90.60;;;;;;5061107;28;20014;-82
2022/04/10 09:26:23;;;;;;;;;;;9.30;89.30;;;;;;5057505;28;20441;-83
2022/04/10 09:28:50;;;;;;;;;;;9.30;89.80;;;;;;5045837;28;19917;-82
2022/04/10 09:31:32;;;;;;;;;;;9.40;89.60;;;;;;5072301;28;19961;-82
2022/04/10 09:33:59;;;;;;;;;;;9.60;87.40;;;;;;5067552;28;20337;-82
2022/04/10 09:36:30;;;;;;;;;;;9.70;85.20;;;;;;5058747;28;19913;-83
2022/04/10 09:38:56;;;;;;;;;;;9.60;84.10;;;;;;5063702;28;20462;-83
2022/04/10 09:41:21;;;;;;;;;;;9.20;82.40;;;;;;5069982;28;19952;-82
2022/04/10 09:43:47;;;;;;;;;;;8.70;86.00;;;;;;5064779;28;19959;-82
2022/04/10 09:46:15;;;;;;;;;;;8.50;91.10;;;;;;5048863;28;19951;-83
2022/04/10 09:48:41;;;;;;;;;;;8.30;93.60;;;;;;5063975;28;19913;-81
2022/04/10 09:51:09;;;;;;;;;;;8.20;96.00;;;;;;5062048;28;19915;-84
2022/04/10 09:53:35;;;;;;;;;;;8.20;95.50;;;;;;5064235;28;19916;-83
2022/04/10 09:56:05;;;;;;;;;;;8.20;94.80;;;;;;5056392;28;20011;-85
2022/04/10 09:58:31;;;;;;;;;;;8.20;95.20;;;;;;5066801;28;19924;-82
2022/04/10 10:00:57;;;;;;;;;;;8.30;94.50;;;;;;5053719;28;20003;-85
2022/04/10 10:03:24;;;;;;;;;;;8.50;95.50;;;;;;5072929;28;19916;-83
2022/04/10 10:05:50;;;;;;;;;;;8.90;95.40;;;;;;5065612;28;19908;-83
2022/04/10 10:08:16;;;;;;;;;;;9.30;93.50;;;;;;5061811;28;19978;-83
2022/04/10 10:10:42;;;;;;;;;;;9.60;90.00;;;;;;5042913;28;19917;-83
2022/04/10 10:13:08;;;;;;;;;;;9.60;84.80;;;;;;5068030;28;19924;-84
2022/04/10 10:15:34;;;;;;;;;;;9.20;84.40;;;;;;5044261;28;20039;-84
2022/04/10 10:18:04;;;;;;;;;;;8.90;90.00;;;;;;5068364;28;19913;-83
2022/04/10 10:20:30;;;;;;;;;;;8.50;91.10;;;;;;5057233;28;19916;-83
2022/04/10 10:22:56;;;;;;;;;;;8.30;91.70;;;;;;5055894;28;19924;-84
2022/04/10 10:25:24;;;;;;;;;;;8.30;92.10;;;;;;5063898;28;19962;-82
2022/04/10 10:28:09;;;;;;;;;;;8.20;90.70;;;;;;5061223;28;20004;-87
2022/04/10 10:30:37;;;;;;;;;;;8.10;93.20;;;;;;5070701;28;19917;-88
2022/04/10 10:33:15;;;;;;;;;;;8.50;94.10;;;;;;5068264;28;20191;-86
2022/04/10 10:35:42;;;;;;;;;;;8.70;91.90;;;;;;5068147;28;20013;-87
2022/04/10 10:38:20;;;;;;;;;;;9.10;89.10;;;;;;5060375;28;19916;-85
2022/04/10 10:40:46;;;;;;;;;;;9.40;84.90;;;;;;5072929;28;19924;-85
2022/04/10 10:43:17;;;;;;;;;;;9.50;77.20;;;;;;5046873;28;19971;-83
2022/04/10 10:45:42;;;;;;;;;;;9.40;79.40;;;;;;5057296;28;21461;-84
2022/04/10 10:48:27;;;;;;;;;;;9.10;78.80;;;;;;5051110;28;19947;-84
2022/04/10 10:50:53;;;;;;;;;;;8.90;82.30;;;;;;5082426;28;19943;-84
2022/04/10 10:53:37;;;;;;;;;;;9.20;86.20;;;;;;5065682;28;19913;-84
2022/04/10 10:56:04;;;;;;;;;;;9.40;76.30;;;;;;5088218;28;19916;-84
2022/04/10 10:58:31;;;;;;;;;;;9.70;73.70;;;;;;5040151;28;19921;-84
2022/04/10 11:01:03;;;;;;;;;;;10.10;69.50;;;;;;5069330;28;19923;-84
2022/04/10 11:03:28;;;;;;;;;;;10.30;69.10;;;;;;5052113;28;19967;-85
2022/04/10 11:06:03;;;;;;;;;;;10.80;69.00;;;;;;5063915;28;19912;-87
2022/04/10 11:08:37;;;;;;;;;;;10.90;62.60;;;;;;5069795;28;19920;-87
2022/04/10 11:11:04;;;;;;;;;;;11.30;63.40;;;;;;5067772;28;20255;-85
2022/04/10 11:13:37;;;;;;;;;;;11.60;62.90;;;;;;5060790;28;19913;-85
2022/04/10 11:16:08;;;;;;;;;;;11.80;60.50;;;;;;5048014;28;19959;-84
2022/04/10 11:18:37;;;;;;;;;;;11.80;57.20;;;;;;5066372;28;19916;-84
2022/04/10 11:21:08;;;;;;;;;;;11.60;57.40;;;;;;5054797;28;20343;-85
2022/04/10 11:23:40;;;;;;;;;;;11.30;57.50;;;;;;5044899;28;21845;-85
2022/04/10 11:26:08;;;;;;;;;;;10.60;57.70;;;;;;5067920;28;20355;-85
2022/04/10 11:28:56;;;;;;;;;;;10.00;60.10;;;;;;5065874;28;19913;-84
2022/04/10 11:31:27;;;;;;;;;;;9.30;64.20;;;;;;5074273;28;19923;-85
2022/04/10 11:33:55;;;;;;;;;;;8.60;70.50;;;;;;5071206;28;19927;-85
2022/04/10 11:36:20;;;;;;;;;;;8.00;73.10;;;;;;5073637;28;19951;-85
2022/04/10 11:39:04;;;;;;;;;;;7.70;80.70;;;;;;5044515;28;19916;-84
2022/04/10 11:41:30;;;;;;;;;;;7.40;89.90;;;;;;5089836;28;20227;-84
2022/04/10 11:43:56;;;;;;;;;;;7.10;93.90;;;;;;5068738;28;19924;-84
2022/04/10 11:46:22;;;;;;;;;;;7.00;97.80;;;;;;5050628;28;19916;-83
2022/04/10 11:48:48;;;;;;;;;;;7.00;98.80;;;;;;5045814;28;20015;-83
2022/04/10 11:51:13;;;;;;;;;;;7.10;99.90;;;;;;5074012;28;19928;-83
2022/04/10 11:53:39;;;;;;;;;;;7.50;99.90;;;;;;5069362;28;19921;-82
2022/04/10 11:56:05;;;;;;;;;;;8.10;99.00;;;;;;5056682;28;19916;-81
2022/04/10 11:58:34;;;;;;;;;;;8.60;96.20;;;;;;5062767;28;19934;-84
2022/04/10 12:01:01;;;;;;;;;;;9.00;94.90;;;;;;5055841;28;19913;-84
2022/04/10 12:03:29;;;;;;;;;;;9.50;91.50;;;;;;5067566;28;19931;-83
2022/04/10 12:05:55;;;;;;;;;;;9.80;88.20;;;;;;5050252;28;19967;-83
2022/04/10 12:08:21;;;;;;;;;;;10.10;76.00;;;;;;5068800;28;19912;-83
2022/04/10 12:10:57;;;;;;;;;;;10.60;74.10;;;;;;5069960;28;19916;-84
2022/04/10 12:13:34;;;;;;;;;;;11.20;65.70;;;;;;5045348;28;19916;-83
2022/04/10 12:16:00;;;;;;;;;;;11.70;64.00;;;;;;5061996;28;20278;-83
2022/04/10 12:18:26;;;;;;;;;;;12.00;59.30;;;;;;5065417;28;19916;-84
2022/04/10 12:20:56;;;;;;;;;;;12.20;58.80;;;;;;5057756;28;19913;-84
2022/04/10 12:23:26;;;;;;;;;;;12.20;58.20;;;;;;5065486;28;19917;-83
2022/04/10 12:25:54;;;;;;;;;;;11.90;55.90;;;;;;5038712;28;19966;-83
2022/04/10 12:28:20;;;;;;;;;;;11.50;56.60;;;;;;5050125;28;20409;-83
2022/04/10 12:30:46;;;;;;;;;;;10.90;58.90;;;;;;5055787;28;19916;-83
2022/04/10 12:33:12;;;;;;;;;;;10.50;60.80;;;;;;5064431;28;19916;-83
2022/04/10 12:35:38;;;;;;;;;;;10.40;62.50;;;;;;5065419;28;20333;-83
2022/04/10 12:38:04;;;;;;;;;;;10.40;65.50;;;;;;5039360;28;19978;-84
2022/04/10 12:40:30;;;;;;;;;;;10.40;65.10;;;;;;5038660;28;20572;-83
2022/04/10 12:42:59;;;;;;;;;;;10.70;63.70;;;;;;5038548;28;19927;-83
2022/04/10 12:45:27;;;;;;;;;;;11.00;63.00;;;;;;5052218;28;20000;-83
2022/04/10 12:47:52;;;;;;;;;;;11.20;62.70;;;;;;5068398;28;19920;-83
2022/04/10 12:50:19;;;;;;;;;;;11.30;60.40;;;;;;5060225;28;20023;-83
2022/04/10 12:52:45;;;;;;;;;;;11.30;58.00;;;;;;5044119;28;19921;-83
2022/04/10 12:55:21;;;;;;;;;;;11.40;57.30;;;;;;5051712;28;20373;-83
2022/04/10 12:58:00;;;;;;;;;;;11.50;56.60;;;;;;5068366;28;19913;-84
2022/04/10 13:00:27;;;;;;;;;;;11.20;54.90;;;;;;5052286;28;19928;-83
2022/04/10 13:02:53;;;;;;;;;;;11.00;55.80;;;;;;5065406;28;20007;-83
2022/04/10 13:05:19;;;;;;;;;;;10.90;56.20;;;;;;5068245;28;19965;-83
2022/04/10 13:08:02;;;;;;;;;;;10.90;56.80;;;;;;5069565;28;20367;-84
2022/04/10 13:10:28;;;;;;;;;;;10.80;56.20;;;;;;5055704;28;20451;-84
2022/04/10 13:13:04;;;;;;;;;;;10.50;56.40;;;;;;5059774;28;19916;-84
2022/04/10 13:15:30;;;;;;;;;;;10.30;56.60;;;;;;5055437;28;19982;-85
2022/04/10 13:17:57;;;;;;;;;;;10.10;57.00;;;;;;5051402;28;19965;-85
2022/04/10 13:20:26;;;;;;;;;;;10.10;57.00;;;;;;5056415;28;20612;-84
2022/04/10 13:22:51;;;;;;;;;;;10.00;55.80;;;;;;5034438;28;20071;-84
2022/04/10 13:25:17;;;;;;;;;;;9.90;55.90;;;;;;5067683;28;20411;-84
2022/04/10 13:27:42;;;;;;;;;;;10.00;56.20;;;;;;5068394;28;19924;-83
2022/04/10 13:30:08;;;;;;;;;;;10.20;56.40;;;;;;5057610;28;20382;-84
2022/04/10 13:32:34;;;;;;;;;;;10.40;55.70;;;;;;5032555;28;19913;-84
2022/04/10 13:34:59;;;;;;;;;;;10.50;54.20;;;;;;5048925;28;19912;-84
2022/04/10 13:37:29;;;;;;;;;;;10.70;54.60;;;;;;5032350;28;19936;-84
2022/04/10 13:39:55;;;;;;;;;;;10.70;51.90;;;;;;5032676;28;19920;-85
2022/04/10 13:42:21;;;;;;;;;;;10.90;53.90;;;;;;5071986;22;19924;-85
2022/04/10 13:44:46;;;;;;;;;;;10.70;52.90;;;;;;5057047;28;19916;-84
2022/04/10 13:47:12;;;;;;;;;;;10.70;53.80;;;;;;5056503;28;19970;-85
2022/04/10 13:49:38;;;;;;;;;;;10.70;54.50;;;;;;5073043;28;19955;-86
2022/04/10 13:52:03;;;;;;;;;;;10.70;52.40;;;;;;5056330;28;19913;-85
2022/04/10 13:54:29;;;;;;;;;;;10.70;52.10;;;;;;5056727;28;19917;-85
2022/04/10 13:56:55;;;;;;;;;;;11.00;55.10;;;;;;5073105;28;19909;-85
2022/04/10 13:59:21;;;;;;;;;;;11.30;54.70;;;;;;5073059;28;19908;-85
2022/04/10 14:01:46;;;;;;;;;;;11.40;52.90;;;;;;5072694;28;19912;-86
2022/04/10 14:04:12;;;;;;;;;;;11.50;53.90;;;;;;5056128;28;19912;-84
2022/04/10 14:06:37;;;;;;;;;;;11.30;53.50;;;;;;5056434;28;19921;-85
2022/04/10 14:09:03;;;;;;;;;;;11.00;53.80;;;;;;5055928;28;19924;-85
2022/04/10 14:11:29;;;;;;;;;;;10.80;53.80;;;;;;5056216;28;19913;-85
2022/04/10 14:13:54;;;;;;;;;;;10.50;54.30;;;;;;5072528;28;19913;-85
2022/04/10 14:16:20;;;;;;;;;;;10.50;54.70;;;;;;5072456;28;20054;-85
2022/04/10 14:18:46;;;;;;;;;;;10.50;55.50;;;;;;5072059;28;19913;-85
2022/04/10 14:21:12;;;;;;;;;;;10.60;55.90;;;;;;5072251;28;19995;-84
2022/04/10 14:23:38;;;;;;;;;;;10.50;54.70;;;;;;5072459;28;20511;-85
2022/04/10 14:26:05;;;;;;;;;;;10.40;55.10;;;;;;5072458;28;19936;-84
2022/04/10 14:28:31;;;;;;;;;;;10.30;55.20;;;;;;5072296;28;20366;-85